sensor_id;sensor_type;location;lat;lon;timestamp;temperature;humidity
24744;DHT22;12844;52.110;5.548;2022-07-06T00:01:37;24.60;54.40
24744;DHT22;12844;52.110;5.548;2022-07-06T00:04:03;24.60;53.80
24744;DHT22;12844;52.110;5.548;2022-07-06T00:06:29;24.60;53.80
24744;DHT22;12844;52.110;5.548;2022-07-06T00:08:54;24.50;53.70
24744;DHT22;12844;52.110;5.548;2022-07-06T00:11:21;24.50;53.70
24744;DHT22;12844;52.110;5.548;2022-07-06T00:13:46;24.50;53.70
24744;DHT22;12844;52.110;5.548;2022-07-06T00:16:12;24.50;53.70
24744;DHT22;12844;52.110;5.548;2022-07-06T00:18:37;24.50;53.70
24744;DHT22;12844;52.110;5.548;2022-07-06T00:21:03;24.50;53.70
24744;DHT22;12844;52.110;5.548;2022-07-06T00:23:29;24.50;53.70
24744;DHT22;12844;52.110;5.548;2022-07-06T00:25:54;24.50;53.70
24744;DHT22;12844;52.110;5.548;2022-07-06T00:28:20;24.50;53.70
24744;DHT22;12844;52.110;5.548;2022-07-06T00:30:45;24.50;53.70
24744;DHT22;12844;52.110;5.548;2022-07-06T00:33:11;24.50;53.70
24744;DHT22;12844;52.110;5.548;2022-07-06T00:35:37;24.50;53.70
24744;DHT22;12844;52.110;5.548;2022-07-06T00:38:02;24.50;53.70
24744;DHT22;12844;52.110;5.548;2022-07-06T00:40:28;24.50;53.70
24744;DHT22;12844;52.110;5.548;2022-07-06T00:42:56;24.50;53.70
24744;DHT22;12844;52.110;5.548;2022-07-06T00:45:22;24.50;54.30
24744;DHT22;12844;52.110;5.548;2022-07-06T00:47:48;24.50;53.70
24744;DHT22;12844;52.110;5.548;2022-07-06T00:50:16;24.50;53.70
24744;DHT22;12844;52.110;5.548;2022-07-06T00:52:56;24.50;53.70
24744;DHT22;12844;52.110;5.548;2022-07-06T00:55:24;24.50;53.70
24744;DHT22;12844;52.110;5.548;2022-07-06T00:57:51;24.50;53.70
24744;DHT22;12844;52.110;5.548;2022-07-06T01:00:19;24.50;53.70
24744;DHT22;12844;52.110;5.548;2022-07-06T01:02:45;24.50;53.70
24744;DHT22;12844;52.110;5.548;2022-07-06T01:05:12;24.50;53.70
24744;DHT22;12844;52.110;5.548;2022-07-06T01:07:40;24.50;53.70
24744;DHT22;12844;52.110;5.548;2022-07-06T01:10:07;24.50;53.70
24744;DHT22;12844;52.110;5.548;2022-07-06T01:12:34;24.40;53.60
24744;DHT22;12844;52.110;5.548;2022-07-06T01:15:01;24.40;53.60
24744;DHT22;12844;52.110;5.548;2022-07-06T01:17:28;24.50;53.70
24744;DHT22;12844;52.110;5.548;2022-07-06T01:19:54;24.40;53.60
24744;DHT22;12844;52.110;5.548;2022-07-06T01:22:19;24.40;53.60
24744;DHT22;12844;52.110;5.548;2022-07-06T01:24:45;24.40;53.70
24744;DHT22;12844;52.110;5.548;2022-07-06T01:27:10;24.40;53.70
24744;DHT22;12844;52.110;5.548;2022-07-06T01:29:36;24.40;53.60
24744;DHT22;12844;52.110;5.548;2022-07-06T01:32:02;24.40;53.60
24744;DHT22;12844;52.110;5.548;2022-07-06T01:34:28;24.40;53.60
24744;DHT22;12844;52.110;5.548;2022-07-06T01:36:53;24.40;53.60
24744;DHT22;12844;52.110;5.548;2022-07-06T01:39:20;24.40;53.60
24744;DHT22;12844;52.110;5.548;2022-07-06T01:41:45;24.40;53.60
24744;DHT22;12844;52.110;5.548;2022-07-06T01:44:11;24.40;53.60
24744;DHT22;12844;52.110;5.548;2022-07-06T01:46:37;24.40;53.60
24744;DHT22;12844;52.110;5.548;2022-07-06T01:49:04;24.40;53.60
24744;DHT22;12844;52.110;5.548;2022-07-06T01:51:29;24.40;53.60
24744;DHT22;12844;52.110;5.548;2022-07-06T01:53:55;24.40;53.60
24744;DHT22;12844;52.110;5.548;2022-07-06T01:56:20;24.40;53.50
24744;DHT22;12844;52.110;5.548;2022-07-06T01:58:47;24.40;53.60
24744;DHT22;12844;52.110;5.548;2022-07-06T02:01:15;24.40;53.50
24744;DHT22;12844;52.110;5.548;2022-07-06T02:03:41;24.40;53.50
24744;DHT22;12844;52.110;5.548;2022-07-06T02:06:07;24.40;53.50
24744;DHT22;12844;52.110;5.548;2022-07-06T02:08:34;24.40;53.50
24744;DHT22;12844;52.110;5.548;2022-07-06T02:11:00;24.30;53.50
24744;DHT22;12844;52.110;5.548;2022-07-06T02:13:26;24.30;53.50
24744;DHT22;12844;52.110;5.548;2022-07-06T02:15:52;24.30;53.50
24744;DHT22;12844;52.110;5.548;2022-07-06T02:18:17;24.30;53.50
24744;DHT22;12844;52.110;5.548;2022-07-06T02:20:43;24.30;53.50
24744;DHT22;12844;52.110;5.548;2022-07-06T02:23:09;24.30;53.50
24744;DHT22;12844;52.110;5.548;2022-07-06T02:25:35;24.30;53.50
24744;DHT22;12844;52.110;5.548;2022-07-06T02:28:00;24.30;53.50
24744;DHT22;12844;52.110;5.548;2022-07-06T02:30:26;24.30;53.50
24744;DHT22;12844;52.110;5.548;2022-07-06T02:32:51;24.20;53.50
24744;DHT22;12844;52.110;5.548;2022-07-06T02:35:17;24.30;53.50
24744;DHT22;12844;52.110;5.548;2022-07-06T02:37:43;24.30;53.50
24744;DHT22;12844;52.110;5.548;2022-07-06T02:40:09;24.30;53.50
24744;DHT22;12844;52.110;5.548;2022-07-06T02:42:35;24.20;53.40
24744;DHT22;12844;52.110;5.548;2022-07-06T02:45:00;24.20;53.50
24744;DHT22;12844;52.110;5.548;2022-07-06T02:47:26;24.20;53.50
24744;DHT22;12844;52.110;5.548;2022-07-06T02:49:52;24.20;53.50
24744;DHT22;12844;52.110;5.548;2022-07-06T02:52:18;24.20;53.50
24744;DHT22;12844;52.110;5.548;2022-07-06T02:54:44;24.20;53.50
24744;DHT22;12844;52.110;5.548;2022-07-06T02:57:09;24.20;53.50
24744;DHT22;12844;52.110;5.548;2022-07-06T02:59:35;24.20;53.50
24744;DHT22;12844;52.110;5.548;2022-07-06T03:02:03;24.20;53.50
24744;DHT22;12844;52.110;5.548;2022-07-06T03:04:29;24.20;53.50
24744;DHT22;12844;52.110;5.548;2022-07-06T03:06:54;24.20;53.50
24744;DHT22;12844;52.110;5.548;2022-07-06T03:09:20;24.20;53.50
24744;DHT22;12844;52.110;5.548;2022-07-06T03:11:45;24.20;53.50
24744;DHT22;12844;52.110;5.548;2022-07-06T03:14:11;24.20;54.10
24744;DHT22;12844;52.110;5.548;2022-07-06T03:16:36;24.20;53.50
24744;DHT22;12844;52.110;5.548;2022-07-06T03:19:02;24.20;53.50
24744;DHT22;12844;52.110;5.548;2022-07-06T03:21:27;24.20;53.50
24744;DHT22;12844;52.110;5.548;2022-07-06T03:23:53;24.20;53.50
24744;DHT22;12844;52.110;5.548;2022-07-06T03:26:18;24.20;53.50
24744;DHT22;12844;52.110;5.548;2022-07-06T03:28:44;24.20;53.50
24744;DHT22;12844;52.110;5.548;2022-07-06T03:31:09;24.20;53.50
24744;DHT22;12844;52.110;5.548;2022-07-06T03:33:35;24.20;53.50
24744;DHT22;12844;52.110;5.548;2022-07-06T03:36:00;24.10;53.50
24744;DHT22;12844;52.110;5.548;2022-07-06T03:38:26;24.10;53.50
24744;DHT22;12844;52.110;5.548;2022-07-06T03:40:52;24.10;53.50
24744;DHT22;12844;52.110;5.548;2022-07-06T03:43:17;24.10;54.10
24744;DHT22;12844;52.110;5.548;2022-07-06T03:45:43;24.10;53.40
24744;DHT22;12844;52.110;5.548;2022-07-06T03:48:09;24.10;53.40
24744;DHT22;12844;52.110;5.548;2022-07-06T03:50:34;24.10;53.40
24744;DHT22;12844;52.110;5.548;2022-07-06T03:53:00;24.10;53.50
24744;DHT22;12844;52.110;5.548;2022-07-06T03:55:26;24.10;53.50
24744;DHT22;12844;52.110;5.548;2022-07-06T03:57:52;24.10;53.40
24744;DHT22;12844;52.110;5.548;2022-07-06T04:00:17;24.10;53.40
24744;DHT22;12844;52.110;5.548;2022-07-06T04:02:43;24.10;53.40
24744;DHT22;12844;52.110;5.548;2022-07-06T04:05:08;24.10;53.40
24744;DHT22;12844;52.110;5.548;2022-07-06T04:07:34;24.10;53.40
24744;DHT22;12844;52.110;5.548;2022-07-06T04:10:00;24.10;53.40
24744;DHT22;12844;52.110;5.548;2022-07-06T04:12:26;24.10;53.40
24744;DHT22;12844;52.110;5.548;2022-07-06T04:14:51;24.10;53.40
24744;DHT22;12844;52.110;5.548;2022-07-06T04:17:17;24.10;53.40
24744;DHT22;12844;52.110;5.548;2022-07-06T04:20:01;24.10;53.40
24744;DHT22;12844;52.110;5.548;2022-07-06T04:22:27;24.10;53.40
24744;DHT22;12844;52.110;5.548;2022-07-06T04:24:52;24.10;53.40
24744;DHT22;12844;52.110;5.548;2022-07-06T04:27:18;24.10;53.40
24744;DHT22;12844;52.110;5.548;2022-07-06T04:29:43;24.10;53.40
24744;DHT22;12844;52.110;5.548;2022-07-06T04:32:09;24.10;53.30
24744;DHT22;12844;52.110;5.548;2022-07-06T04:34:34;24.10;53.30
24744;DHT22;12844;52.110;5.548;2022-07-06T04:37:00;24.10;53.30
24744;DHT22;12844;52.110;5.548;2022-07-06T04:39:25;24.10;53.30
24744;DHT22;12844;52.110;5.548;2022-07-06T04:41:51;24.10;53.30
24744;DHT22;12844;52.110;5.548;2022-07-06T04:44:16;24.10;53.30
24744;DHT22;12844;52.110;5.548;2022-07-06T04:46:42;24.10;53.40
24744;DHT22;12844;52.110;5.548;2022-07-06T04:49:07;24.10;53.30
24744;DHT22;12844;52.110;5.548;2022-07-06T04:51:33;24.10;53.30
24744;DHT22;12844;52.110;5.548;2022-07-06T04:53:59;24.10;53.30
24744;DHT22;12844;52.110;5.548;2022-07-06T04:56:24;24.10;53.30
24744;DHT22;12844;52.110;5.548;2022-07-06T04:58:50;24.10;53.30
24744;DHT22;12844;52.110;5.548;2022-07-06T05:01:15;24.10;53.30
24744;DHT22;12844;52.110;5.548;2022-07-06T05:03:41;24.10;53.30
24744;DHT22;12844;52.110;5.548;2022-07-06T05:06:07;24.10;53.30
24744;DHT22;12844;52.110;5.548;2022-07-06T05:08:33;24.10;53.30
24744;DHT22;12844;52.110;5.548;2022-07-06T05:10:59;24.10;53.30
24744;DHT22;12844;52.110;5.548;2022-07-06T05:13:24;24.10;53.90
24744;DHT22;12844;52.110;5.548;2022-07-06T05:15:50;24.00;53.20
24744;DHT22;12844;52.110;5.548;2022-07-06T05:18:16;24.00;53.20
24744;DHT22;12844;52.110;5.548;2022-07-06T05:20:41;24.00;53.20
24744;DHT22;12844;52.110;5.548;2022-07-06T05:23:07;24.10;53.90
24744;DHT22;12844;52.110;5.548;2022-07-06T05:25:32;24.10;53.20
24744;DHT22;12844;52.110;5.548;2022-07-06T05:27:59;24.00;53.20
24744;DHT22;12844;52.110;5.548;2022-07-06T05:30:25;24.00;53.20
24744;DHT22;12844;52.110;5.548;2022-07-06T05:32:50;24.00;53.20
24744;DHT22;12844;52.110;5.548;2022-07-06T05:35:16;24.00;53.20
24744;DHT22;12844;52.110;5.548;2022-07-06T05:37:42;24.00;53.20
24744;DHT22;12844;52.110;5.548;2022-07-06T05:40:08;24.00;53.20
24744;DHT22;12844;52.110;5.548;2022-07-06T05:42:34;24.00;53.20
24744;DHT22;12844;52.110;5.548;2022-07-06T05:44:59;24.00;53.20
24744;DHT22;12844;52.110;5.548;2022-07-06T05:47:25;24.00;53.20
24744;DHT22;12844;52.110;5.548;2022-07-06T05:50:09;24.00;53.10
24744;DHT22;12844;52.110;5.548;2022-07-06T05:52:39;24.00;53.20
24744;DHT22;12844;52.110;5.548;2022-07-06T05:55:05;24.00;53.10
24744;DHT22;12844;52.110;5.548;2022-07-06T05:57:31;24.00;53.10
24744;DHT22;12844;52.110;5.548;2022-07-06T05:59:57;24.00;53.20
24744;DHT22;12844;52.110;5.548;2022-07-06T06:02:22;24.00;53.10
24744;DHT22;12844;52.110;5.548;2022-07-06T06:04:48;24.00;53.10
24744;DHT22;12844;52.110;5.548;2022-07-06T06:07:13;24.00;53.10
24744;DHT22;12844;52.110;5.548;2022-07-06T06:09:39;24.00;53.10
24744;DHT22;12844;52.110;5.548;2022-07-06T06:12:05;24.00;53.10
24744;DHT22;12844;52.110;5.548;2022-07-06T06:14:30;24.00;53.00
24744;DHT22;12844;52.110;5.548;2022-07-06T06:16:56;24.00;53.00
24744;DHT22;12844;52.110;5.548;2022-07-06T06:19:21;24.00;53.00
24744;DHT22;12844;52.110;5.548;2022-07-06T06:21:47;24.00;53.00
24744;DHT22;12844;52.110;5.548;2022-07-06T06:24:12;24.00;53.00
24744;DHT22;12844;52.110;5.548;2022-07-06T06:26:38;24.00;53.00
24744;DHT22;12844;52.110;5.548;2022-07-06T06:29:03;24.00;53.00
24744;DHT22;12844;52.110;5.548;2022-07-06T06:31:29;24.00;53.00
24744;DHT22;12844;52.110;5.548;2022-07-06T06:33:54;24.00;53.00
24744;DHT22;12844;52.110;5.548;2022-07-06T06:36:20;24.10;53.00
24744;DHT22;12844;52.110;5.548;2022-07-06T06:38:46;24.10;53.00
24744;DHT22;12844;52.110;5.548;2022-07-06T06:41:11;24.10;53.00
24744;DHT22;12844;52.110;5.548;2022-07-06T06:43:38;24.10;53.00
24744;DHT22;12844;52.110;5.548;2022-07-06T06:46:03;24.10;53.00
24744;DHT22;12844;52.110;5.548;2022-07-06T06:48:29;24.00;52.90
24744;DHT22;12844;52.110;5.548;2022-07-06T06:50:56;24.00;52.90
24744;DHT22;12844;52.110;5.548;2022-07-06T06:53:22;24.10;53.00
24744;DHT22;12844;52.110;5.548;2022-07-06T06:55:47;24.10;53.00
24744;DHT22;12844;52.110;5.548;2022-07-06T06:58:13;24.10;52.90
24744;DHT22;12844;52.110;5.548;2022-07-06T07:00:38;24.10;52.90
24744;DHT22;12844;52.110;5.548;2022-07-06T07:03:04;24.10;52.90
24744;DHT22;12844;52.110;5.548;2022-07-06T07:05:29;24.10;53.00
24744;DHT22;12844;52.110;5.548;2022-07-06T07:07:55;24.00;52.90
24744;DHT22;12844;52.110;5.548;2022-07-06T07:10:24;24.00;52.90
24744;DHT22;12844;52.110;5.548;2022-07-06T07:12:50;24.00;52.90
24744;DHT22;12844;52.110;5.548;2022-07-06T07:15:16;24.00;53.00
24744;DHT22;12844;52.110;5.548;2022-07-06T07:17:42;24.00;52.90
24744;DHT22;12844;52.110;5.548;2022-07-06T07:20:08;24.00;52.90
24744;DHT22;12844;52.110;5.548;2022-07-06T07:22:34;24.00;52.90
24744;DHT22;12844;52.110;5.548;2022-07-06T07:25:00;24.00;52.90
24744;DHT22;12844;52.110;5.548;2022-07-06T07:27:26;24.00;52.90
24744;DHT22;12844;52.110;5.548;2022-07-06T07:29:52;24.00;52.80
24744;DHT22;12844;52.110;5.548;2022-07-06T07:32:18;24.00;52.80
24744;DHT22;12844;52.110;5.548;2022-07-06T07:34:45;24.00;52.90
24744;DHT22;12844;52.110;5.548;2022-07-06T07:37:11;24.00;52.90
24744;DHT22;12844;52.110;5.548;2022-07-06T07:39:36;24.00;52.90
24744;DHT22;12844;52.110;5.548;2022-07-06T07:42:02;24.00;52.80
24744;DHT22;12844;52.110;5.548;2022-07-06T07:44:28;24.00;52.80
24744;DHT22;12844;52.110;5.548;2022-07-06T07:46:53;24.00;52.90
24744;DHT22;12844;52.110;5.548;2022-07-06T07:49:19;24.00;52.90
24744;DHT22;12844;52.110;5.548;2022-07-06T07:51:47;24.00;52.90
24744;DHT22;12844;52.110;5.548;2022-07-06T07:54:12;24.00;52.90
24744;DHT22;12844;52.110;5.548;2022-07-06T07:56:38;24.00;52.80
24744;DHT22;12844;52.110;5.548;2022-07-06T07:59:06;24.00;52.80
24744;DHT22;12844;52.110;5.548;2022-07-06T08:01:32;24.00;52.80
24744;DHT22;12844;52.110;5.548;2022-07-06T08:03:58;24.00;52.80
24744;DHT22;12844;52.110;5.548;2022-07-06T08:06:24;24.00;52.80
24744;DHT22;12844;52.110;5.548;2022-07-06T08:08:49;24.00;52.80
24744;DHT22;12844;52.110;5.548;2022-07-06T08:11:15;24.00;52.80
24744;DHT22;12844;52.110;5.548;2022-07-06T08:13:41;24.00;52.80
24744;DHT22;12844;52.110;5.548;2022-07-06T08:16:06;24.00;52.80
24744;DHT22;12844;52.110;5.548;2022-07-06T08:18:33;24.00;52.80
24744;DHT22;12844;52.110;5.548;2022-07-06T08:20:59;24.00;52.70
24744;DHT22;12844;52.110;5.548;2022-07-06T08:23:25;24.00;52.80
24744;DHT22;12844;52.110;5.548;2022-07-06T08:25:50;24.00;52.80
24744;DHT22;12844;52.110;5.548;2022-07-06T08:28:16;24.00;52.80
24744;DHT22;12844;52.110;5.548;2022-07-06T08:30:41;24.00;52.80
24744;DHT22;12844;52.110;5.548;2022-07-06T08:33:07;24.00;52.70
24744;DHT22;12844;52.110;5.548;2022-07-06T08:35:32;24.00;52.80
24744;DHT22;12844;52.110;5.548;2022-07-06T08:37:58;24.00;52.80
24744;DHT22;12844;52.110;5.548;2022-07-06T08:40:24;24.10;52.90
24744;DHT22;12844;52.110;5.548;2022-07-06T08:42:53;24.10;52.90
24744;DHT22;12844;52.110;5.548;2022-07-06T08:45:19;24.10;52.90
24744;DHT22;12844;52.110;5.548;2022-07-06T08:47:46;24.10;52.90
24744;DHT22;12844;52.110;5.548;2022-07-06T08:50:14;24.10;52.90
24744;DHT22;12844;52.110;5.548;2022-07-06T08:52:41;24.10;52.80
24744;DHT22;12844;52.110;5.548;2022-07-06T08:55:08;24.20;52.80
24744;DHT22;12844;52.110;5.548;2022-07-06T08:57:34;24.20;52.70
24744;DHT22;12844;52.110;5.548;2022-07-06T08:59:59;24.20;52.70
24744;DHT22;12844;52.110;5.548;2022-07-06T09:02:25;24.20;52.70
24744;DHT22;12844;52.110;5.548;2022-07-06T09:04:54;24.20;52.70
24744;DHT22;12844;52.110;5.548;2022-07-06T09:07:21;24.30;52.70
24744;DHT22;12844;52.110;5.548;2022-07-06T09:09:47;24.30;52.70
24744;DHT22;12844;52.110;5.548;2022-07-06T09:12:13;24.30;52.70
24744;DHT22;12844;52.110;5.548;2022-07-06T09:14:39;24.30;52.60
24744;DHT22;12844;52.110;5.548;2022-07-06T09:17:06;24.40;52.60
24744;DHT22;12844;52.110;5.548;2022-07-06T09:19:33;24.40;52.70
24744;DHT22;12844;52.110;5.548;2022-07-06T09:22:00;24.40;52.70
24744;DHT22;12844;52.110;5.548;2022-07-06T09:24:26;24.30;52.60
24744;DHT22;12844;52.110;5.548;2022-07-06T09:26:55;24.30;52.60
24744;DHT22;12844;52.110;5.548;2022-07-06T09:29:28;24.30;52.60
24744;DHT22;12844;52.110;5.548;2022-07-06T09:32:01;24.30;52.60
24744;DHT22;12844;52.110;5.548;2022-07-06T09:34:43;24.30;52.70
24744;DHT22;12844;52.110;5.548;2022-07-06T09:37:10;24.30;52.60
24744;DHT22;12844;52.110;5.548;2022-07-06T09:39:36;24.20;52.70
24744;DHT22;12844;52.110;5.548;2022-07-06T09:42:03;24.20;52.80
24744;DHT22;12844;52.110;5.548;2022-07-06T09:44:35;24.20;52.80
24744;DHT22;12844;52.110;5.548;2022-07-06T09:47:04;24.20;52.70
24744;DHT22;12844;52.110;5.548;2022-07-06T09:49:30;24.20;52.80
24744;DHT22;12844;52.110;5.548;2022-07-06T09:51:58;24.20;52.80
24744;DHT22;12844;52.110;5.548;2022-07-06T09:54:24;24.20;52.80
24744;DHT22;12844;52.110;5.548;2022-07-06T09:56:51;24.20;52.80
24744;DHT22;12844;52.110;5.548;2022-07-06T09:59:24;24.20;52.70
24744;DHT22;12844;52.110;5.548;2022-07-06T10:01:52;24.20;52.70
24744;DHT22;12844;52.110;5.548;2022-07-06T10:04:18;24.20;52.70
24744;DHT22;12844;52.110;5.548;2022-07-06T10:06:45;24.20;52.70
24744;DHT22;12844;52.110;5.548;2022-07-06T10:09:12;24.30;52.70
24744;DHT22;12844;52.110;5.548;2022-07-06T10:11:40;24.20;52.70
24744;DHT22;12844;52.110;5.548;2022-07-06T10:14:07;24.30;52.70
24744;DHT22;12844;52.110;5.548;2022-07-06T10:16:35;24.20;52.70
24744;DHT22;12844;52.110;5.548;2022-07-06T10:19:04;24.20;52.70
24744;DHT22;12844;52.110;5.548;2022-07-06T10:21:30;24.30;52.70
24744;DHT22;12844;52.110;5.548;2022-07-06T10:23:56;24.30;52.70
24744;DHT22;12844;52.110;5.548;2022-07-06T10:26:25;24.20;52.80
24744;DHT22;12844;52.110;5.548;2022-07-06T10:28:52;24.20;52.70
24744;DHT22;12844;52.110;5.548;2022-07-06T10:31:18;24.30;52.80
24744;DHT22;12844;52.110;5.548;2022-07-06T10:33:44;24.20;52.70
24744;DHT22;12844;52.110;5.548;2022-07-06T10:36:11;24.30;52.80
24744;DHT22;12844;52.110;5.548;2022-07-06T10:38:37;24.30;52.80
24744;DHT22;12844;52.110;5.548;2022-07-06T10:41:08;24.30;52.80
24744;DHT22;12844;52.110;5.548;2022-07-06T10:43:35;24.30;52.80
24744;DHT22;12844;52.110;5.548;2022-07-06T10:46:09;24.30;52.80
24744;DHT22;12844;52.110;5.548;2022-07-06T10:48:43;24.30;52.70
24744;DHT22;12844;52.110;5.548;2022-07-06T10:51:11;24.30;52.80
24744;DHT22;12844;52.110;5.548;2022-07-06T10:53:39;24.30;52.90
24744;DHT22;12844;52.110;5.548;2022-07-06T10:56:07;24.30;52.90
24744;DHT22;12844;52.110;5.548;2022-07-06T10:58:51;24.30;52.80
24744;DHT22;12844;52.110;5.548;2022-07-06T11:01:18;24.30;52.80
24744;DHT22;12844;52.110;5.548;2022-07-06T11:04:04;24.30;52.90
24744;DHT22;12844;52.110;5.548;2022-07-06T11:06:36;24.40;52.80
24744;DHT22;12844;52.110;5.548;2022-07-06T11:09:07;24.40;52.80
24744;DHT22;12844;52.110;5.548;2022-07-06T11:14:06;24.40;52.90
24744;DHT22;12844;52.110;5.548;2022-07-06T11:19:20;24.40;52.80
24744;DHT22;12844;52.110;5.548;2022-07-06T11:21:52;24.40;52.90
24744;DHT22;12844;52.110;5.548;2022-07-06T11:24:21;24.40;52.80
24744;DHT22;12844;52.110;5.548;2022-07-06T11:26:51;24.40;52.90
24744;DHT22;12844;52.110;5.548;2022-07-06T11:29:19;24.40;52.90
24744;DHT22;12844;52.110;5.548;2022-07-06T11:31:47;24.40;52.90
24744;DHT22;12844;52.110;5.548;2022-07-06T11:34:27;24.40;52.90
24744;DHT22;12844;52.110;5.548;2022-07-06T11:37:01;24.40;52.90
24744;DHT22;12844;52.110;5.548;2022-07-06T11:39:32;24.40;52.80
24744;DHT22;12844;52.110;5.548;2022-07-06T11:41:59;24.40;52.90
24744;DHT22;12844;52.110;5.548;2022-07-06T11:44:26;24.40;52.90
24744;DHT22;12844;52.110;5.548;2022-07-06T11:46:52;24.40;52.90
24744;DHT22;12844;52.110;5.548;2022-07-06T11:49:18;24.40;52.90
24744;DHT22;12844;52.110;5.548;2022-07-06T11:51:45;24.40;52.80
24744;DHT22;12844;52.110;5.548;2022-07-06T11:54:13;24.40;52.90
24744;DHT22;12844;52.110;5.548;2022-07-06T11:56:50;24.40;52.90
24744;DHT22;12844;52.110;5.548;2022-07-06T11:59:27;24.50;52.90
24744;DHT22;12844;52.110;5.548;2022-07-06T12:02:09;24.50;52.90
24744;DHT22;12844;52.110;5.548;2022-07-06T12:04:36;24.50;52.90
24744;DHT22;12844;52.110;5.548;2022-07-06T12:07:07;24.40;52.90
24744;DHT22;12844;52.110;5.548;2022-07-06T12:09:35;24.40;53.10
24744;DHT22;12844;52.110;5.548;2022-07-06T12:12:01;24.40;53.10
24744;DHT22;12844;52.110;5.548;2022-07-06T12:14:29;24.40;53.00
24744;DHT22;12844;52.110;5.548;2022-07-06T12:16:55;24.50;53.00
24744;DHT22;12844;52.110;5.548;2022-07-06T12:19:23;24.50;53.00
24744;DHT22;12844;52.110;5.548;2022-07-06T12:21:51;24.50;52.90
24744;DHT22;12844;52.110;5.548;2022-07-06T12:24:25;24.50;52.90
24744;DHT22;12844;52.110;5.548;2022-07-06T12:26:51;24.50;53.00
24744;DHT22;12844;52.110;5.548;2022-07-06T12:29:17;24.50;53.00
24744;DHT22;12844;52.110;5.548;2022-07-06T12:34:26;24.50;53.00
24744;DHT22;12844;52.110;5.548;2022-07-06T12:36:57;24.50;53.60
24744;DHT22;12844;52.110;5.548;2022-07-06T12:39:27;24.50;53.00
24744;DHT22;12844;52.110;5.548;2022-07-06T12:42:04;24.50;53.00
24744;DHT22;12844;52.110;5.548;2022-07-06T12:44:30;24.50;53.00
24744;DHT22;12844;52.110;5.548;2022-07-06T12:47:07;24.50;53.00
24744;DHT22;12844;52.110;5.548;2022-07-06T12:49:34;24.50;53.00
24744;DHT22;12844;52.110;5.548;2022-07-06T12:54:36;24.50;53.10
24744;DHT22;12844;52.110;5.548;2022-07-06T12:59:43;24.50;53.00
24744;DHT22;12844;52.110;5.548;2022-07-06T13:02:20;24.50;53.00
24744;DHT22;12844;52.110;5.548;2022-07-06T13:05:05;24.60;52.90
24744;DHT22;12844;52.110;5.548;2022-07-06T13:07:33;24.70;52.80
24744;DHT22;12844;52.110;5.548;2022-07-06T13:10:11;24.70;52.80
24744;DHT22;12844;52.110;5.548;2022-07-06T13:12:38;24.70;52.80
24744;DHT22;12844;52.110;5.548;2022-07-06T16:23:34;24.40;53.50
24744;DHT22;12844;52.110;5.548;2022-07-06T16:26:00;24.40;53.60
24744;DHT22;12844;52.110;5.548;2022-07-06T16:28:25;24.40;53.50
24744;DHT22;12844;52.110;5.548;2022-07-06T16:30:51;24.40;53.50
24744;DHT22;12844;52.110;5.548;2022-07-06T16:33:17;24.40;53.60
24744;DHT22;12844;52.110;5.548;2022-07-06T16:35:43;24.40;53.50
24744;DHT22;12844;52.110;5.548;2022-07-06T16:38:09;24.40;53.50
24744;DHT22;12844;52.110;5.548;2022-07-06T16:40:34;24.40;53.50
24744;DHT22;12844;52.110;5.548;2022-07-06T16:43:00;24.40;53.50
24744;DHT22;12844;52.110;5.548;2022-07-06T16:45:27;24.40;53.50
24744;DHT22;12844;52.110;5.548;2022-07-06T16:47:52;24.40;53.50
24744;DHT22;12844;52.110;5.548;2022-07-06T16:50:18;24.40;53.50
24744;DHT22;12844;52.110;5.548;2022-07-06T16:52:43;24.40;53.50
24744;DHT22;12844;52.110;5.548;2022-07-06T16:55:09;24.40;53.50
24744;DHT22;12844;52.110;5.548;2022-07-06T16:57:34;24.40;53.50
24744;DHT22;12844;52.110;5.548;2022-07-06T17:00:00;24.40;53.50
24744;DHT22;12844;52.110;5.548;2022-07-06T17:02:26;24.40;53.50
24744;DHT22;12844;52.110;5.548;2022-07-06T17:04:51;24.40;53.50
24744;DHT22;12844;52.110;5.548;2022-07-06T17:07:17;24.40;53.50
24744;DHT22;12844;52.110;5.548;2022-07-06T17:09:42;24.40;53.50
24744;DHT22;12844;52.110;5.548;2022-07-06T17:12:08;24.40;53.50
24744;DHT22;12844;52.110;5.548;2022-07-06T17:14:34;24.40;53.50
24744;DHT22;12844;52.110;5.548;2022-07-06T17:17:00;24.40;53.50
24744;DHT22;12844;52.110;5.548;2022-07-06T17:19:26;24.40;53.50
24744;DHT22;12844;52.110;5.548;2022-07-06T17:21:51;24.40;53.50
24744;DHT22;12844;52.110;5.548;2022-07-06T17:24:17;24.40;53.50
24744;DHT22;12844;52.110;5.548;2022-07-06T17:26:43;24.40;53.60
24744;DHT22;12844;52.110;5.548;2022-07-06T17:29:08;24.40;53.50
24744;DHT22;12844;52.110;5.548;2022-07-06T17:31:34;24.40;53.60
24744;DHT22;12844;52.110;5.548;2022-07-06T17:34:01;24.40;53.60
24744;DHT22;12844;52.110;5.548;2022-07-06T17:36:27;24.40;53.50
24744;DHT22;12844;52.110;5.548;2022-07-06T17:38:53;24.40;53.50
24744;DHT22;12844;52.110;5.548;2022-07-06T17:41:20;24.40;53.50
24744;DHT22;12844;52.110;5.548;2022-07-06T17:43:46;24.40;53.60
24744;DHT22;12844;52.110;5.548;2022-07-06T17:46:11;24.40;53.60
24744;DHT22;12844;52.110;5.548;2022-07-06T17:48:37;24.40;53.50
24744;DHT22;12844;52.110;5.548;2022-07-06T17:51:02;24.40;53.50
24744;DHT22;12844;52.110;5.548;2022-07-06T17:53:28;24.40;53.60
24744;DHT22;12844;52.110;5.548;2022-07-06T17:55:53;24.40;53.50
24744;DHT22;12844;52.110;5.548;2022-07-06T17:58:19;24.40;53.60
24744;DHT22;12844;52.110;5.548;2022-07-06T18:00:44;24.40;53.60
24744;DHT22;12844;52.110;5.548;2022-07-06T18:03:10;24.40;53.60
24744;DHT22;12844;52.110;5.548;2022-07-06T18:05:35;24.30;53.50
24744;DHT22;12844;52.110;5.548;2022-07-06T18:08:02;24.40;53.60
24744;DHT22;12844;52.110;5.548;2022-07-06T18:10:28;24.40;53.60
24744;DHT22;12844;52.110;5.548;2022-07-06T18:12:54;24.40;53.60
24744;DHT22;12844;52.110;5.548;2022-07-06T18:15:20;24.40;53.60
24744;DHT22;12844;52.110;5.548;2022-07-06T18:17:46;24.40;53.50
24744;DHT22;12844;52.110;5.548;2022-07-06T18:20:12;24.40;53.60
24744;DHT22;12844;52.110;5.548;2022-07-06T18:22:37;24.40;53.60
24744;DHT22;12844;52.110;5.548;2022-07-06T18:25:03;24.40;53.60
24744;DHT22;12844;52.110;5.548;2022-07-06T18:27:29;24.40;53.60
24744;DHT22;12844;52.110;5.548;2022-07-06T18:29:54;24.40;53.60
24744;DHT22;12844;52.110;5.548;2022-07-06T18:32:20;24.30;53.50
24744;DHT22;12844;52.110;5.548;2022-07-06T18:34:45;24.40;53.60
24744;DHT22;12844;52.110;5.548;2022-07-06T18:37:11;24.40;53.60
24744;DHT22;12844;52.110;5.548;2022-07-06T18:39:36;24.40;53.60
24744;DHT22;12844;52.110;5.548;2022-07-06T18:42:02;24.40;53.60
24744;DHT22;12844;52.110;5.548;2022-07-06T18:44:27;24.40;53.60
24744;DHT22;12844;52.110;5.548;2022-07-06T18:46:55;24.40;53.60
24744;DHT22;12844;52.110;5.548;2022-07-06T18:49:21;24.40;53.60